| Date | Time | Temp. (oF) | Dew Point (oF) | Rel. Hum. (%) | Press. (in.) | Wind Dir. | Wind Speed (mph) | Hourly Rainfall (in.) |
|
|---|---|---|---|---|---|---|---|---|---|
| 1 | 04/19 | 00:00 | 58 | 36 | 44 | 29.93 | W | 3 | 0.00 |
| 2 | 04/18 | 23:00 | 57 | 36 | 46 | 29.95 | SW | 2 | 0.00 |
| 3 | 04/18 | 22:00 | 62 | 36 | 39 | 29.94 | WSW | 0 | 0.00 |
| 4 | 04/18 | 21:00 | 66 | 35 | 32 | 29.93 | WNW | 5 | 0.00 |
| 5 | 04/18 | 20:00 | 70 | 35 | 29 | 29.91 | WSW | 2 | 0.00 |
| 6 | 04/18 | 19:00 | 73 | 36 | 27 | 29.90 | WSW | 5 | 0.00 |
| 7 | 04/18 | 18:00 | 75 | 36 | 25 | 29.91 | W | 9 | 0.00 |
| 8 | 04/18 | 17:00 | 76 | 37 | 25 | 29.92 | SW | 11 | 0.00 |
| 9 | 04/18 | 16:00 | 76 | 40 | 28 | 29.94 | W | 5 | 0.00 |
| 10 | 04/18 | 15:00 | 76 | 38 | 26 | 29.98 | WSW | 10 | 0.00 |
| 11 | 04/18 | 14:00 | 75 | 39 | 28 | 30.01 | WSW | 4 | 0.00 |
| 12 | 04/18 | 13:00 | 74 | 39 | 29 | 30.05 | WSW | 10 | 0.00 |
| 13 | 04/18 | 12:00 | 71 | 39 | 32 | 30.08 | WSW | 9 | 0.00 |
| 14 | 04/18 | 11:00 | 68 | 41 | 38 | 30.09 | WSW | 8 | 0.00 |
| 15 | 04/18 | 10:00 | 65 | 36 | 35 | 30.11 | NW | 5 | 0.00 |
| 16 | 04/18 | 09:00 | 59 | 38 | 46 | 30.11 | SW | 3 | 0.00 |
| 17 | 04/18 | 08:00 | 49 | 40 | 73 | 30.11 | WSW | 0 | 0.00 |
| 18 | 04/18 | 07:00 | 40 | 35 | 83 | 30.11 | WSW | 3 | 0.00 |
| 19 | 04/18 | 06:00 | 42 | 34 | 75 | 30.10 | W | 1 | 0.00 |
| 20 | 04/18 | 05:00 | 43 | 34 | 73 | 30.10 | WNW | 2 | 0.00 |
| 21 | 04/18 | 04:00 | 44 | 32 | 64 | 30.11 | NW | 2 | 0.00 |
| 22 | 04/18 | 03:00 | 49 | 33 | 54 | 30.12 | W | 0 | 0.00 |
| 23 | 04/18 | 02:00 | 51 | 32 | 50 | 30.12 | W | 0 | 0.00 |
| 24 | 04/18 | 01:00 | 51 | 32 | 49 | 30.11 | W | 2 | 0.00 |